createdAt,value
2022-08-19T00:01:30.754Z,24.77
2022-08-19T00:04:02.027Z,24.74
2022-08-19T00:06:29.839Z,24.67
2022-08-19T00:08:57.815Z,24.58
2022-08-19T00:11:25.693Z,24.55
2022-08-19T00:13:53.650Z,24.52
2022-08-19T00:16:26.224Z,24.49
2022-08-19T00:18:54.610Z,24.43
2022-08-19T00:21:21.684Z,24.44
2022-08-19T00:23:48.561Z,24.47
2022-08-19T00:26:15.795Z,24.42
2022-08-19T00:28:42.674Z,24.39
2022-08-19T00:31:09.726Z,24.35
2022-08-19T00:33:36.928Z,24.35
2022-08-19T00:36:05.685Z,24.28
2022-08-19T00:38:36.754Z,24.21
2022-08-19T00:41:04.701Z,24.22
2022-08-19T00:43:32.015Z,24.20
2022-08-19T00:46:00.255Z,24.12
2022-08-19T00:48:27.532Z,24.07
2022-08-19T00:50:56.713Z,24.03
2022-08-19T00:53:25.402Z,24.01
2022-08-19T00:55:54.376Z,23.96
2022-08-19T00:58:23.312Z,23.99
2022-08-19T01:00:50.523Z,23.96
2022-08-19T01:03:19.570Z,23.91
2022-08-19T01:05:48.498Z,23.88
2022-08-19T01:08:16.678Z,23.84
2022-08-19T01:10:48.288Z,23.79
2022-08-19T01:13:16.073Z,23.74
2022-08-19T01:15:44.547Z,23.72
2022-08-19T01:18:14.083Z,23.71
2022-08-19T01:20:42.358Z,23.69
2022-08-19T01:23:09.867Z,23.70
2022-08-19T01:25:42.056Z,23.68
2022-08-19T01:28:10.869Z,23.67
2022-08-19T01:30:38.690Z,23.68
2022-08-19T01:33:07.066Z,23.65
2022-08-19T01:35:35.971Z,23.58
2022-08-19T01:38:08.422Z,23.51
2022-08-19T01:40:37.782Z,23.46
2022-08-19T01:43:05.387Z,23.43
2022-08-19T01:45:34.080Z,23.42
2022-08-19T01:48:02.498Z,23.37
2022-08-19T01:50:31.383Z,23.30
2022-08-19T01:53:03.643Z,23.23
2022-08-19T01:55:34.323Z,23.17
2022-08-19T01:58:03.112Z,23.11
2022-08-19T02:00:31.737Z,23.07
2022-08-19T02:02:58.628Z,23.03
2022-08-19T02:05:25.831Z,23.01
2022-08-19T02:07:52.886Z,23.00
2022-08-19T02:10:22.061Z,22.98
2022-08-19T02:12:50.539Z,22.90
2022-08-19T02:15:19.902Z,22.81
2022-08-19T02:17:47.523Z,22.74
2022-08-19T02:20:14.845Z,22.73
2022-08-19T02:22:45.261Z,22.70
2022-08-19T02:25:13.603Z,22.75
2022-08-19T02:27:40.976Z,22.72
2022-08-19T02:30:09.508Z,22.67
2022-08-19T02:32:44.748Z,22.69
2022-08-19T02:35:12.838Z,22.65
2022-08-19T02:37:58.616Z,22.58
2022-08-19T02:40:25.808Z,22.54
2022-08-19T02:42:52.905Z,22.43
2022-08-19T02:45:20.346Z,22.33
2022-08-19T02:47:47.662Z,22.30
2022-08-19T02:50:15.665Z,22.26
2022-08-19T02:52:42.729Z,22.22
2022-08-19T02:55:09.942Z,22.17
2022-08-19T02:57:37.861Z,22.12
2022-08-19T03:00:06.418Z,22.13
2022-08-19T03:02:33.546Z,22.12
2022-08-19T03:05:00.508Z,22.08
2022-08-19T03:07:27.739Z,22.03
2022-08-19T03:09:54.613Z,22.00
2022-08-19T03:12:21.789Z,22.02
2022-08-19T03:14:48.879Z,22.02
2022-08-19T03:17:16.110Z,22.00
2022-08-19T03:19:44.218Z,21.98
2022-08-19T03:22:11.604Z,21.98
2022-08-19T03:24:39.244Z,21.96
2022-08-19T03:27:06.600Z,21.98
2022-08-19T03:29:33.713Z,21.93
2022-08-19T03:32:10.581Z,21.96
2022-08-19T03:34:57.998Z,21.99
2022-08-19T03:37:25.188Z,22.02
2022-08-19T03:39:53.073Z,21.90
2022-08-19T03:42:32.992Z,21.97
2022-08-19T03:45:08.557Z,21.96
2022-08-19T03:47:35.587Z,21.90
2022-08-19T03:50:03.167Z,21.93
2022-08-19T03:52:30.918Z,21.93
2022-08-19T03:54:58.035Z,21.90
2022-08-19T03:57:31.617Z,21.86
2022-08-19T04:00:03.790Z,21.86
2022-08-19T04:02:40.469Z,21.90
2022-08-19T04:05:09.311Z,21.95
2022-08-19T04:07:36.634Z,21.99
2022-08-19T04:10:04.564Z,22.04
2022-08-19T04:12:31.725Z,22.06
2022-08-19T04:14:59.434Z,22.13
2022-08-19T04:17:27.102Z,22.14
2022-08-19T04:19:54.142Z,22.19
2022-08-19T04:22:21.599Z,22.21
2022-08-19T04:24:48.901Z,22.30
2022-08-19T04:27:18.114Z,22.34
2022-08-19T04:30:20.437Z,22.38
2022-08-19T04:32:47.686Z,22.42
2022-08-19T04:35:17.630Z,22.43
2022-08-19T04:37:45.702Z,22.50
2022-08-19T04:40:31.094Z,22.53
2022-08-19T04:42:58.401Z,22.57
2022-08-19T04:45:25.449Z,22.66
2022-08-19T04:47:58.739Z,22.77
2022-08-19T04:50:34.843Z,22.89
2022-08-19T04:53:04.863Z,22.93
2022-08-19T04:55:35.390Z,22.97
2022-08-19T04:58:05.179Z,23.07
2022-08-19T05:00:32.145Z,23.09
2022-08-19T05:03:03.287Z,23.14
2022-08-19T05:05:44.592Z,23.25
2022-08-19T05:08:15.219Z,23.34
2022-08-19T05:10:42.670Z,23.36
2022-08-19T05:13:11.079Z,23.47
2022-08-19T05:15:39.386Z,23.54
2022-08-19T05:18:25.025Z,23.62
2022-08-19T05:21:10.718Z,23.70
2022-08-19T05:23:38.185Z,23.82
2022-08-19T05:26:05.129Z,23.92
2022-08-19T05:28:32.120Z,24.04
2022-08-19T05:30:59.617Z,24.13
2022-08-19T05:33:26.753Z,24.24
2022-08-19T05:35:53.879Z,24.37
2022-08-19T05:38:21.347Z,24.51
2022-08-19T05:40:49.155Z,24.68
2022-08-19T05:43:19.247Z,24.74
2022-08-19T05:45:46.473Z,24.88
2022-08-19T05:48:13.993Z,25.07
2022-08-19T05:50:42.078Z,25.25
2022-08-19T05:53:10.006Z,25.40
2022-08-19T05:55:39.125Z,25.54
2022-08-19T05:58:08.589Z,25.64
2022-08-19T06:00:37.043Z,25.77
2022-08-19T06:03:12.485Z,25.90
2022-08-19T06:05:42.248Z,25.94
2022-08-19T06:08:19.490Z,26.00
2022-08-19T06:10:46.800Z,26.12
2022-08-19T06:13:13.845Z,26.25
2022-08-19T06:15:45.376Z,26.35
2022-08-19T06:18:13.042Z,26.44
2022-08-19T06:20:55.583Z,26.52
2022-08-19T06:23:24.150Z,26.69
2022-08-19T06:25:51.586Z,26.80
2022-08-19T06:28:19.153Z,26.92
2022-08-19T06:30:46.624Z,27.10
2022-08-19T06:33:13.681Z,27.20
2022-08-19T06:35:41.629Z,27.36
2022-08-19T06:38:10.427Z,27.50
2022-08-19T06:40:39.247Z,27.61
2022-08-19T06:43:08.547Z,27.71
2022-08-19T06:45:39.446Z,27.77
2022-08-19T06:48:08.023Z,27.87
2022-08-19T06:50:39.363Z,28.01
2022-08-19T06:53:06.996Z,28.14
2022-08-19T06:55:34.016Z,28.31
2022-08-19T06:58:04.615Z,28.41
2022-08-19T07:00:33.655Z,28.49
2022-08-19T07:03:06.005Z,28.55
2022-08-19T07:05:40.143Z,28.69
2022-08-19T07:08:12.290Z,28.77
2022-08-19T07:10:43.629Z,28.76
2022-08-19T07:13:10.759Z,28.85
2022-08-19T07:15:39.731Z,28.89
2022-08-19T07:18:07.121Z,29.00
2022-08-19T07:20:40.152Z,29.06
2022-08-19T07:23:09.752Z,29.19
2022-08-19T07:25:44.525Z,29.20
2022-08-19T07:28:14.357Z,29.29
2022-08-19T07:30:51.717Z,29.35
2022-08-19T07:33:20.433Z,29.33
2022-08-19T07:35:47.372Z,29.44
2022-08-19T07:38:15.893Z,29.55
2022-08-19T07:40:44.513Z,29.58
2022-08-19T07:43:14.186Z,29.63
2022-08-19T07:45:45.595Z,29.58
2022-08-19T07:48:12.537Z,29.42
2022-08-19T07:50:40.025Z,29.49
2022-08-19T07:53:07.136Z,29.54
2022-08-19T07:55:41.866Z,29.64
2022-08-19T07:58:11.428Z,29.81
2022-08-19T08:00:38.511Z,29.96
2022-08-19T08:03:05.819Z,30.15
2022-08-19T08:05:51.354Z,30.28
2022-08-19T08:08:36.717Z,30.23
2022-08-19T08:11:07.703Z,30.28
2022-08-19T08:13:39.092Z,30.35
2022-08-19T08:16:10.204Z,30.28
2022-08-19T08:18:43.350Z,30.29
2022-08-19T08:21:18.175Z,30.29
2022-08-19T08:23:45.498Z,30.01
2022-08-19T08:26:14.249Z,30.12
2022-08-19T08:28:43.142Z,30.23
2022-08-19T08:31:15.760Z,30.24
2022-08-19T08:33:43.405Z,30.33
2022-08-19T08:36:11.990Z,30.21
2022-08-19T08:38:40.605Z,30.33
2022-08-19T08:41:20.782Z,30.53
2022-08-19T08:43:52.024Z,30.72
2022-08-19T08:46:31.322Z,30.47
2022-08-19T08:49:04.977Z,30.70
2022-08-19T08:54:13.754Z,30.62
2022-08-19T08:56:41.848Z,30.39
2022-08-19T08:59:18.202Z,30.45
2022-08-19T09:01:45.538Z,30.73
2022-08-19T09:04:13.544Z,30.87
2022-08-19T09:06:55.872Z,30.92
2022-08-19T09:09:23.282Z,30.86
2022-08-19T09:12:02.234Z,30.76
2022-08-19T09:14:51.238Z,30.82
2022-08-19T09:17:22.074Z,30.83
2022-08-19T09:19:54.137Z,30.92
2022-08-19T09:22:25.597Z,31.03
2022-08-19T09:24:53.564Z,30.99
2022-08-19T09:27:22.031Z,31.17
2022-08-19T09:30:10.787Z,31.17
2022-08-19T09:32:42.807Z,31.18
2022-08-19T09:35:10.390Z,31.00
2022-08-19T09:37:37.731Z,30.97
2022-08-19T09:40:08.273Z,30.96
2022-08-19T09:42:39.443Z,31.05
2022-08-19T09:45:22.335Z,31.21
2022-08-19T09:47:50.497Z,31.38
2022-08-19T09:50:19.235Z,31.61
2022-08-19T09:52:54.048Z,31.75
2022-08-19T09:55:24.809Z,31.77
2022-08-19T09:58:00.503Z,31.87
2022-08-19T10:00:28.153Z,31.73
2022-08-19T10:02:55.189Z,31.72
2022-08-19T10:05:42.167Z,31.74
2022-08-19T10:08:13.004Z,31.86
2022-08-19T10:10:46.264Z,31.87
2022-08-19T10:13:16.106Z,32.00
2022-08-19T10:15:47.245Z,32.05
2022-08-19T10:18:15.680Z,32.02
2022-08-19T10:20:43.365Z,31.81
2022-08-19T10:23:10.693Z,31.44
2022-08-19T10:25:38.654Z,31.53
2022-08-19T10:28:12.877Z,31.78
2022-08-19T10:30:40.833Z,31.74
2022-08-19T10:33:11.110Z,31.99
2022-08-19T10:35:56.297Z,31.88
2022-08-19T10:38:31.673Z,31.79
2022-08-19T10:40:59.416Z,31.67
2022-08-19T10:43:26.438Z,31.56
2022-08-19T10:45:56.607Z,31.63
2022-08-19T10:48:23.733Z,31.37
2022-08-19T10:51:09.597Z,31.33
2022-08-19T10:53:36.718Z,31.36
2022-08-19T10:56:22.279Z,31.40
2022-08-19T10:58:50.023Z,31.64
2022-08-19T11:01:17.161Z,31.71
2022-08-19T11:03:46.233Z,31.63
2022-08-19T11:06:20.401Z,31.67
2022-08-19T11:08:47.662Z,31.80
2022-08-19T11:11:14.620Z,31.97
2022-08-19T11:13:42.630Z,32.20
2022-08-19T11:16:14.903Z,32.29
2022-08-19T11:18:44.089Z,32.07
2022-08-19T11:21:18.252Z,32.14
2022-08-19T11:23:46.317Z,32.35
2022-08-19T11:26:14.165Z,32.44
2022-08-19T11:28:41.388Z,32.48
2022-08-19T11:31:15.878Z,32.53
2022-08-19T11:33:47.604Z,32.57
2022-08-19T11:36:16.568Z,32.72
2022-08-19T11:38:43.583Z,32.87
2022-08-19T11:41:10.627Z,32.81
2022-08-19T11:43:38.098Z,32.30
2022-08-19T11:46:08.090Z,32.39
2022-08-19T11:48:35.903Z,32.57
2022-08-19T11:51:10.514Z,32.74
2022-08-19T11:53:37.961Z,32.80
2022-08-19T11:56:05.905Z,32.96
2022-08-19T11:58:32.989Z,32.95
2022-08-19T12:01:00.086Z,33.10
2022-08-19T12:03:27.210Z,33.27
2022-08-19T12:05:54.629Z,33.39
2022-08-19T12:08:21.955Z,33.46
2022-08-19T12:10:49.045Z,33.50
2022-08-19T12:13:19.689Z,33.54
2022-08-19T12:15:49.148Z,33.45
2022-08-19T12:18:16.322Z,33.56
2022-08-19T12:20:44.128Z,33.42
2022-08-19T12:23:11.693Z,33.36
2022-08-19T12:25:49.416Z,33.39
2022-08-19T12:28:26.323Z,33.43
2022-08-19T12:30:53.540Z,33.53
2022-08-19T12:33:20.685Z,33.57
2022-08-19T12:35:48.876Z,33.74
2022-08-19T12:38:17.449Z,33.87
2022-08-19T12:40:48.182Z,33.53
2022-08-19T12:43:16.995Z,33.21
2022-08-19T12:45:44.652Z,33.36
2022-08-19T12:48:32.990Z,33.42
2022-08-19T12:51:02.954Z,33.49
2022-08-19T12:53:30.234Z,33.70
2022-08-19T12:55:58.143Z,33.81
2022-08-19T12:58:27.374Z,33.80
2022-08-19T13:00:54.808Z,33.83
2022-08-19T13:03:23.574Z,33.80
2022-08-19T13:05:52.321Z,34.01
2022-08-19T13:08:19.463Z,34.13
2022-08-19T13:10:46.555Z,34.30
2022-08-19T13:13:13.655Z,34.17
2022-08-19T13:15:42.204Z,33.91
2022-08-19T13:18:11.339Z,33.97
2022-08-19T13:20:38.819Z,33.76
2022-08-19T13:23:07.042Z,33.61
2022-08-19T13:25:34.341Z,33.58
2022-08-19T13:28:01.349Z,33.59
2022-08-19T13:30:47.551Z,33.76
2022-08-19T13:33:17.715Z,33.78
2022-08-19T13:35:47.130Z,33.85
2022-08-19T13:38:15.173Z,33.90
2022-08-19T13:41:26.076Z,34.02
2022-08-19T13:43:53.424Z,34.13
2022-08-19T13:46:21.382Z,34.17
2022-08-19T13:48:51.822Z,34.27
2022-08-19T13:51:19.382Z,34.43
2022-08-19T13:53:48.212Z,34.40
2022-08-19T13:56:20.178Z,34.42
2022-08-19T13:58:50.096Z,34.22
2022-08-19T14:01:21.911Z,34.12
2022-08-19T14:03:51.754Z,34.13
2022-08-19T14:06:19.499Z,34.20
2022-08-19T14:08:47.286Z,34.26
2022-08-19T14:11:14.660Z,34.23
2022-08-19T14:13:41.834Z,34.25
2022-08-19T14:16:13.013Z,34.31
2022-08-19T14:18:41.167Z,34.43
2022-08-19T14:21:08.565Z,34.47
2022-08-19T14:23:37.227Z,34.50
2022-08-19T14:26:12.722Z,34.49
2022-08-19T14:28:42.062Z,34.67
2022-08-19T14:31:13.852Z,34.70
2022-08-19T14:33:41.647Z,34.72
2022-08-19T14:36:08.725Z,34.68
2022-08-19T14:38:36.947Z,34.66
2022-08-19T14:41:23.608Z,34.59
2022-08-19T14:43:52.902Z,34.58
2022-08-19T14:46:21.663Z,34.48
2022-08-19T14:48:50.599Z,34.56
2022-08-19T14:51:20.108Z,34.59
2022-08-19T14:53:49.681Z,34.63
2022-08-19T14:56:18.944Z,34.69
2022-08-19T14:58:46.402Z,34.72
2022-08-19T15:01:14.006Z,34.78
2022-08-19T15:03:44.076Z,34.56
2022-08-19T15:06:12.797Z,34.65
2022-08-19T15:08:42.144Z,34.69
2022-08-19T15:11:15.526Z,34.69
2022-08-19T15:13:42.951Z,34.65
2022-08-19T15:16:18.101Z,34.69
2022-08-19T15:18:46.723Z,34.66
2022-08-19T15:21:16.087Z,34.50
2022-08-19T15:23:45.413Z,34.40
2022-08-19T15:26:15.987Z,34.41
2022-08-19T15:28:43.333Z,34.34
2022-08-19T15:31:25.059Z,34.37
2022-08-19T15:33:58.840Z,34.34
2022-08-19T15:36:27.222Z,34.30
2022-08-19T15:38:55.729Z,34.32
2022-08-19T15:41:24.445Z,34.28
2022-08-19T15:43:57.049Z,34.21
2022-08-19T15:46:25.446Z,34.09
2022-08-19T15:48:57.170Z,33.95
2022-08-19T15:51:25.058Z,33.92
2022-08-19T15:53:52.102Z,33.81
2022-08-19T15:56:19.171Z,33.70
2022-08-19T15:59:04.912Z,33.63
2022-08-19T16:01:40.477Z,33.46
2022-08-19T16:04:26.734Z,33.41
2022-08-19T16:06:58.009Z,33.36
2022-08-19T16:09:29.074Z,33.32
2022-08-19T16:11:59.647Z,33.30
2022-08-19T16:14:29.466Z,33.44
2022-08-19T16:16:57.065Z,33.59
2022-08-19T16:19:24.839Z,33.69
2022-08-19T16:21:53.003Z,33.60
2022-08-19T16:24:21.981Z,33.56
2022-08-19T16:26:49.543Z,33.35
2022-08-19T16:29:27.738Z,33.15
2022-08-19T16:32:02.811Z,32.95
2022-08-19T16:34:30.604Z,32.94
2022-08-19T16:36:57.725Z,32.78
2022-08-19T16:41:03.794Z,32.72
2022-08-19T16:43:34.925Z,32.68
2022-08-19T16:46:02.558Z,32.55
2022-08-19T16:48:31.330Z,32.44
2022-08-19T16:51:00.552Z,32.34
2022-08-19T16:53:29.128Z,32.21
2022-08-19T16:55:59.732Z,32.11
2022-08-19T16:58:29.664Z,32.05
2022-08-19T17:01:03.733Z,31.91
2022-08-19T17:03:36.524Z,31.81
2022-08-19T17:06:20.336Z,31.67
2022-08-19T17:08:50.318Z,31.60
2022-08-19T17:11:19.626Z,31.49
2022-08-19T17:13:48.433Z,31.34
2022-08-19T17:16:18.150Z,31.25
2022-08-19T17:18:45.943Z,31.06
2022-08-19T17:21:13.311Z,30.90
2022-08-19T17:23:43.709Z,30.77
2022-08-19T17:26:18.035Z,30.60
2022-08-19T17:28:49.839Z,30.49
2022-08-19T17:31:21.650Z,30.43
2022-08-19T17:33:49.884Z,30.32
2022-08-19T17:36:19.291Z,30.13
2022-08-19T17:38:46.673Z,30.15
2022-08-19T17:41:14.016Z,30.08
2022-08-19T17:43:43.929Z,30.02
2022-08-19T17:46:19.570Z,29.96
2022-08-19T17:48:52.498Z,29.88
2022-08-19T17:51:23.540Z,29.82
2022-08-19T17:53:53.327Z,29.67
2022-08-19T17:56:21.726Z,29.61
2022-08-19T17:59:00.775Z,29.55
2022-08-19T18:01:44.067Z,29.30
2022-08-19T18:04:18.835Z,29.43
2022-08-19T18:06:53.095Z,29.34
2022-08-19T18:09:41.878Z,29.28
2022-08-19T18:12:12.869Z,29.21
2022-08-19T18:14:41.394Z,29.13
2022-08-19T18:17:12.559Z,29.05
2022-08-19T18:19:42.697Z,28.84
2022-08-19T18:22:30.779Z,28.84
2022-08-19T18:24:58.874Z,28.88
2022-08-19T18:27:27.892Z,28.81
2022-08-19T18:29:59.853Z,28.73
2022-08-19T18:32:38.800Z,28.61
2022-08-19T18:35:30.117Z,28.56
2022-08-19T18:38:21.408Z,28.40
2022-08-19T18:41:11.281Z,28.22
2022-08-19T18:43:58.676Z,28.19
2022-08-19T18:46:44.946Z,28.03
2022-08-19T18:49:17.569Z,27.87
2022-08-19T18:51:44.879Z,27.77
2022-08-19T18:54:12.696Z,27.74
2022-08-19T18:56:43.868Z,27.69
2022-08-19T18:59:12.108Z,27.66
2022-08-19T19:01:46.811Z,27.58
2022-08-19T19:04:14.310Z,27.55
2022-08-19T19:06:42.714Z,27.57
2022-08-19T19:09:18.058Z,27.44
2022-08-19T19:11:50.327Z,27.33
2022-08-19T19:14:47.713Z,27.32
2022-08-19T19:17:14.491Z,27.20
2022-08-19T19:19:43.117Z,27.17
2022-08-19T19:22:13.248Z,27.13
2022-08-19T19:24:45.023Z,27.02
2022-08-19T19:27:14.992Z,26.95
2022-08-19T19:29:45.016Z,26.88
2022-08-19T19:32:25.645Z,26.91
2022-08-19T19:34:53.218Z,26.72
2022-08-19T19:37:20.499Z,26.69
2022-08-19T19:39:48.264Z,26.76
2022-08-19T19:42:21.331Z,26.76
2022-08-19T19:44:52.181Z,26.62
2022-08-19T19:47:24.535Z,26.53
2022-08-19T19:50:13.156Z,26.45
2022-08-19T19:52:40.750Z,26.35
2022-08-19T19:55:09.720Z,26.29
2022-08-19T19:57:39.433Z,26.27
2022-08-19T20:00:09.426Z,26.25
2022-08-19T20:02:36.690Z,26.13
2022-08-19T20:05:04.411Z,26.05
2022-08-19T20:07:50.720Z,26.01
2022-08-19T20:10:18.272Z,25.94
2022-08-19T20:12:45.343Z,25.93
2022-08-19T20:15:13.209Z,25.87
2022-08-19T20:17:42.497Z,25.77
2022-08-19T20:20:11.834Z,25.82
2022-08-19T20:22:40.152Z,25.80
2022-08-19T20:25:08.893Z,25.74
2022-08-19T20:27:40.140Z,25.70
2022-08-19T20:30:13.801Z,25.60
2022-08-19T20:32:47.371Z,25.50
2022-08-19T20:35:18.468Z,25.41
2022-08-19T20:37:45.525Z,25.24
2022-08-19T20:40:14.621Z,25.28
2022-08-19T20:42:43.378Z,25.36
2022-08-19T20:45:32.149Z,25.35
2022-08-19T20:48:04.437Z,25.25
2022-08-19T20:50:35.329Z,25.16
2022-08-19T20:53:12.800Z,24.83
2022-08-19T20:55:40.334Z,25.02
2022-08-19T20:58:10.186Z,24.88
2022-08-19T21:00:37.527Z,24.75
2022-08-19T21:03:05.233Z,24.82
2022-08-19T21:05:32.660Z,24.80
2022-08-19T21:07:59.940Z,24.73
2022-08-19T21:10:27.598Z,24.63
2022-08-19T21:12:55.566Z,24.62
2022-08-19T21:15:24.696Z,24.61
2022-08-19T21:17:52.042Z,24.57
2022-08-19T21:20:19.703Z,24.56
2022-08-19T21:22:46.851Z,24.57
2022-08-19T21:25:15.544Z,24.53
2022-08-19T21:27:43.034Z,24.50
2022-08-19T21:30:11.124Z,24.54
2022-08-19T21:32:38.364Z,24.45
2022-08-19T21:35:05.831Z,24.40
2022-08-19T21:37:36.688Z,24.31
2022-08-19T21:40:04.651Z,24.15
2022-08-19T21:42:32.031Z,24.16
2022-08-19T21:45:00.066Z,24.10
2022-08-19T21:47:27.353Z,24.01
2022-08-19T21:49:54.925Z,23.94
2022-08-19T21:52:26.430Z,23.99
2022-08-19T21:54:55.536Z,23.96
2022-08-19T21:57:24.640Z,23.92
2022-08-19T21:59:52.894Z,23.93
2022-08-19T22:02:21.298Z,23.90
2022-08-19T22:04:52.579Z,23.91
2022-08-19T22:07:21.465Z,23.93
2022-08-19T22:09:50.027Z,23.92
2022-08-19T22:12:32.479Z,23.69
2022-08-19T22:15:01.756Z,23.82
2022-08-19T22:17:31.582Z,23.75
2022-08-19T22:19:59.056Z,23.72
2022-08-19T22:22:29.760Z,23.54
2022-08-19T22:25:05.666Z,23.53
2022-08-19T22:27:33.011Z,23.56
2022-08-19T22:30:00.151Z,23.54
2022-08-19T22:32:28.654Z,23.57
2022-08-19T22:34:59.231Z,23.46
2022-08-19T22:37:27.551Z,23.40
2022-08-19T22:39:55.265Z,23.36
2022-08-19T22:42:23.007Z,23.30
2022-08-19T22:44:50.328Z,23.24
2022-08-19T22:47:18.248Z,23.15
2022-08-19T22:49:45.516Z,23.21
2022-08-19T22:52:17.739Z,23.19
2022-08-19T22:54:51.523Z,23.21
2022-08-19T22:57:20.013Z,22.98
2022-08-19T22:59:49.017Z,23.19
2022-08-19T23:02:24.706Z,23.11
2022-08-19T23:04:52.723Z,23.11
2022-08-19T23:07:23.521Z,23.06
2022-08-19T23:09:51.312Z,23.01
2022-08-19T23:12:28.299Z,22.86
2022-08-19T23:14:55.671Z,22.91
2022-08-19T23:17:23.356Z,22.95
2022-08-19T23:19:50.815Z,22.97
2022-08-19T23:22:18.606Z,22.96
2022-08-19T23:24:46.014Z,22.96
2022-08-19T23:27:31.953Z,22.94
2022-08-19T23:30:18.202Z,22.99
2022-08-19T23:32:46.446Z,22.98
2022-08-19T23:35:13.588Z,22.95
2022-08-19T23:37:40.947Z,22.92
2022-08-19T23:40:09.022Z,22.88
2022-08-19T23:42:41.580Z,22.81
2022-08-19T23:45:10.033Z,22.78
2022-08-19T23:47:37.954Z,22.75
2022-08-19T23:50:09.205Z,22.69
2022-08-19T23:52:53.236Z,22.59
2022-08-19T23:55:24.377Z,22.59
2022-08-19T23:57:52.038Z,22.61
